Latest Weather Observations for Banana Bank

IDQ60901

Issued at 5:31 pm EST Tuesday 17 October 2017 (issued every 10 minutes, with the page automatically refreshed every 10 minutes)

About weather observations | Map of Brisbane area stations | Latest observations for Brisbane area | Other Formats
Station Details ID: 040925 Name: BANANA BANK NORTH BEACON Lat: -27.53 Lon: 153.33 Height: 7.0 m
Data from the previous 72 hours. | See also: Recent months for locations in Queensland
Date/Time
EST
Temp
°C
App
Temp
°C
Dew
Point
°C
Rel
Hum
%
Delta-T
°C
Wind Press
QNH
hPa
Press
MSL
hPa
Rain since
9am
mm
Dir  Spd
km/h
Gust
km/h
Spd
kts
Gust
kts
17/05:30pm - - - - - SE 41 52 22 28 - - -
17/05:00pm - - - - - ESE 41 52 22 28 - - -
17/04:30pm - - - - - ESE 41 54 22 29 - - -
17/04:00pm - - - - - ESE 41 52 22 28 - - -
17/03:30pm - - - - - ESE 33 43 18 23 - - -
17/03:00pm - - - - - ESE 35 43 19 23 - - -
17/02:30pm - - - - - SE 35 41 19 22 - - -
17/02:00pm - - - - - SE 35 43 19 23 - - -
17/01:30pm - - - - - SE 37 46 20 25 - - -
17/01:00pm - - - - - SE 39 48 21 26 - - -
17/12:30pm - - - - - SE 37 44 20 24 - - -
17/12:00pm - - - - - SE 35 52 19 28 - - -
17/11:30am - - - - - SE 37 46 20 25 - - -
17/11:00am - - - - - ESE 37 46 20 25 - - -
17/10:30am - - - - - SE 41 50 22 27 - - -
17/10:00am - - - - - SE 41 52 22 28 - - -
17/09:30am - - - - - ESE 43 56 23 30 - - -
17/09:00am - - - - - ESE 41 48 22 26 - - -
17/08:30am - - - - - ESE 37 46 20 25 - - -
17/08:00am - - - - - SE 41 52 22 28 - - -
17/07:30am - - - - - SE 39 50 21 27 - - -
17/07:00am - - - - - ESE 39 50 21 27 - - -
17/06:30am - - - - - SE 41 52 22 28 - - -
17/06:00am - - - - - SE 43 52 23 28 - - -
17/05:30am - - - - - SE 39 46 21 25 - - -
17/05:00am - - - - - SE 39 50 21 27 - - -
17/04:30am - - - - - ESE 37 46 20 25 - - -
17/04:00am - - - - - SE 39 48 21 26 - - -
17/03:30am - - - - - ESE 37 46 20 25 - - -
17/03:00am - - - - - ESE 35 44 19 24 - - -
17/02:30am - - - - - ESE 35 43 19 23 - - -
17/02:00am - - - - - ESE 37 46 20 25 - - -
17/01:30am - - - - - ESE 35 46 19 25 - - -
17/01:00am - - - - - ESE 35 46 19 25 - - -
17/12:30am - - - - - ESE 37 44 20 24 - - -
17/12:00am - - - - - ESE 35 46 19 25 - - -
 
Date/Time
EST
Temp
°C
App
Temp
°C
Dew
Point
°C
Rel
Hum
%
Delta-T
°C
Wind Press
QNH
hPa
Press
MSL
hPa
Rain since
9am
mm
Dir  Spd
km/h
Gust
km/h
Spd
kts
Gust
kts
16/11:30pm - - - - - ESE 35 46 19 25 - - -
16/11:00pm - - - - - ESE 41 48 22 26 - - -
16/10:30pm - - - - - ESE 35 43 19 23 - - -
16/10:00pm - - - - - ESE 35 43 19 23 - - -
16/09:30pm - - - - - ESE 37 43 20 23 - - -
16/09:00pm - - - - - ESE 37 48 20 26 - - -
16/08:30pm - - - - - ESE 41 48 22 26 - - -
16/08:00pm - - - - - SE 39 52 21 28 - - -
16/07:30pm - - - - - ESE 33 39 18 21 - - -
16/07:00pm - - - - - SE 37 44 20 24 - - -
16/06:30pm - - - - - ESE 35 46 19 25 - - -
16/06:00pm - - - - - SE 33 41 18 22 - - -
16/05:30pm - - - - - ESE 35 43 19 23 - - -
16/05:00pm - - - - - SE 35 44 19 24 - - -
16/04:30pm - - - - - SE 37 48 20 26 - - -
16/04:00pm - - - - - SE 41 48 22 26 - - -
16/03:30pm - - - - - ESE 39 46 21 25 - - -
16/03:00pm - - - - - SE 37 44 20 24 - - -
16/02:30pm - - - - - SE 39 48 21 26 - - -
16/02:00pm - - - - - SE 41 52 22 28 - - -
16/01:30pm - - - - - SE 43 48 23 26 - - -
16/01:00pm - - - - - SE 39 52 21 28 - - -
16/12:30pm - - - - - SE 39 48 21 26 - - -
16/12:00pm - - - - - SE 39 48 21 26 - - -
16/11:30am - - - - - SE 39 50 21 27 - - -
16/11:00am - - - - - SE 39 48 21 26 - - -
16/10:30am - - - - - SE 41 50 22 27 - - -
16/10:00am - - - - - ESE 43 52 23 28 - - -
16/09:30am - - - - - ESE 39 52 21 28 - - -
16/09:00am - - - - - ESE 35 48 19 26 - - -
16/08:30am - - - - - ESE 37 44 20 24 - - -
16/08:00am - - - - - ESE 37 44 20 24 - - -
16/07:30am - - - - - ESE 35 43 19 23 - - -
16/07:00am - - - - - ESE 33 43 18 23 - - -
16/06:30am - - - - - ESE 32 39 17 21 - - -
16/06:00am - - - - - ESE 32 39 17 21 - - -
16/05:30am - - - - - SE 35 43 19 23 - - -
16/05:00am - - - - - ESE 30 35 16 19 - - -
16/04:30am - - - - - ESE 33 41 18 22 - - -
16/04:00am - - - - - ESE 37 44 20 24 - - -
16/03:30am - - - - - ESE 33 41 18 22 - - -
16/03:00am - - - - - ESE 33 43 18 23 - - -
16/02:30am - - - - - ESE 37 48 20 26 - - -
16/02:00am - - - - - SE 39 48 21 26 - - -
16/01:30am - - - - - SE 39 50 21 27 - - -
16/01:00am - - - - - SE 43 50 23 27 - - -
16/12:30am - - - - - SE 37 44 20 24 - - -
16/12:00am - - - - - SE 39 48 21 26 - - -
 
Date/Time
EST
Temp
°C
App
Temp
°C
Dew
Point
°C
Rel
Hum
%
Delta-T
°C
Wind Press
QNH
hPa
Press
MSL
hPa
Rain since
9am
mm
Dir  Spd
km/h
Gust
km/h
Spd
kts
Gust
kts
15/11:30pm - - - - - SE 37 46 20 25 - - -
15/11:00pm - - - - - SE 37 46 20 25 - - -
15/10:30pm - - - - - SE 37 48 20 26 - - -
15/10:00pm - - - - - ESE 39 50 21 27 - - -
15/09:30pm - - - - - SE 35 41 19 22 - - -
15/09:00pm - - - - - SE 33 41 18 22 - - -
15/08:30pm - - - - - ESE 33 39 18 21 - - -
15/08:00pm - - - - - ESE 33 43 18 23 - - -
15/07:30pm - - - - - ESE 35 44 19 24 - - -
15/07:00pm - - - - - ESE 41 50 22 27 - - -
15/06:30pm - - - - - ESE 37 46 20 25 - - -
15/06:00pm - - - - - SE 41 57 22 31 - - -
15/05:30pm - - - - - ESE 33 46 18 25 - - -
15/05:00pm - - - - - ESE 32 44 17 24 - - -
15/04:53pm - - - - - ESE 35 56 19 30 - - -
15/04:30pm - - - - - ESE 39 54 21 29 - - -
15/04:00pm - - - - - SE 41 50 22 27 - - -
15/03:56pm - - - - - ESE 44 56 24 30 - - -
15/03:43pm - - - - - ESE 43 59 23 32 - - -
15/03:38pm - - - - - SE 35 57 19 31 - - -
15/03:30pm - - - - - SSE 30 35 16 19 - - -
15/03:00pm - - - - - SE 35 41 19 22 - - -
15/02:42pm - - - - - SE 32 50 17 27 - - -
15/02:30pm - - - - - SE 28 39 15 21 - - -
15/02:00pm - - - - - SE 30 37 16 20 - - -
15/01:30pm - - - - - ESE 35 43 19 23 - - -
15/01:00pm - - - - - ESE 43 52 23 28 - - -
15/12:30pm - - - - - E 39 48 21 26 - - -
15/12:09pm - - - - - ESE 39 57 21 31 - - -
15/12:00pm - - - - - SE 39 46 21 25 - - -
15/11:30am - - - - - ESE 41 48 22 26 - - -
15/11:00am - - - - - ESE 39 50 21 27 - - -
15/10:30am - - - - - ESE 37 48 20 26 - - -
15/10:00am - - - - - SE 41 48 22 26 - - -
15/09:30am - - - - - ESE 41 50 22 27 - - -
15/09:00am - - - - - ESE 37 46 20 25 - - -
15/08:30am - - - - - SE 39 50 21 27 - - -
15/08:13am - - - - - SE 20 41 11 22 - - -
15/08:00am - - - - - ESE 9 15 5 8 - - -
15/07:30am - - - - - SE 30 39 16 21 - - -
15/07:00am - - - - - SE 30 37 16 20 - - -
15/06:30am - - - - - ESE 33 39 18 21 - - -
15/06:00am - - - - - SE 30 43 16 23 - - -
15/05:30am - - - - - SE 26 32 14 17 - - -
15/05:00am - - - - - ESE 26 32 14 17 - - -
15/04:30am - - - - - ESE 32 39 17 21 - - -
15/04:00am - - - - - ESE 30 50 16 27 - - -
15/03:58am - - - - - SE 30 50 16 27 - - -
15/03:52am - - - - - SE 24 50 13 27 - - -
15/03:30am - - - - - SSE 22 30 12 16 - - -
15/03:00am - - - - - ESE 22 28 12 15 - - -
15/02:30am - - - - - SE 20 28 11 15 - - -
15/02:00am - - - - - SE 24 28 13 15 - - -
15/01:30am - - - - - ESE 24 30 13 16 - - -
15/01:00am - - - - - SE 24 32 13 17 - - -
15/12:30am - - - - - SE 24 30 13 16 - - -
15/12:00am - - - - - SE 26 30 14 16 - - -
 
Date/Time
EST
Temp
°C
App
Temp
°C
Dew
Point
°C
Rel
Hum
%
Delta-T
°C
Wind Press
QNH
hPa
Press
MSL
hPa
Rain since
9am
mm
Dir  Spd
km/h
Gust
km/h
Spd
kts
Gust
kts
14/11:30pm - - - - - SE 24 30 13 16 - - -
14/11:00pm - - - - - SE 24 32 13 17 - - -
14/10:30pm - - - - - SE 24 30 13 16 - - -
14/10:00pm - - - - - SE 24 28 13 15 - - -
14/09:30pm - - - - - SE 28 33 15 18 - - -
14/09:00pm - - - - - SE 33 39 18 21 - - -
14/08:30pm - - - - - E 22 39 12 21 - - -
14/08:00pm - - - - - E 24 32 13 17 - - -
14/07:30pm - - - - - SE 20 24 11 13 - - -
14/07:00pm - - - - - ESE 26 32 14 17 - - -
14/06:30pm - - - - - SE 17 20 9 11 - - -
14/06:00pm - - - - - SE 24 32 13 17 - - -

Latest Capital City Observations: Canberra | Sydney | Melbourne | Brisbane | Adelaide | Perth | Hobart | Darwin

Other Formats:

Comma delimited format used in spreadsheet applications
http://www.bom.gov.au/fwo/IDQ60901/IDQ60901.94591.axf

JavaScript Object Notation format (JSON) in row-major order
http://www.bom.gov.au/fwo/IDQ60901/IDQ60901.94591.json